Time;durP1;ratioP1;P1;durP2;ratioP2;P2;SDS_P1;SDS_P2;PMS_P1;PMS_P2;Temp;Humidity;BMP_temperature;BMP_pressure;BME280_temperature;BME280_humidity;BME280_pressure;Samples;Min_cycle;Max_cycle;Signal;HPM_P1;HPM_P2
2020/12/21 00:01:54;;;;;;;36.28;19.02;;;;;;;6.89;64.37;101124.94;4329758;33;33177;-88
2020/12/21 00:04:22;;;;;;;35.28;20.10;;;;;;;6.94;64.21;101122.28;4336315;33;32750;-90
2020/12/21 00:06:56;;;;;;;35.97;18.98;;;;;;;6.32;65.91;101121.81;4339086;32;33579;-89
2020/12/21 00:09:24;;;;;;;38.38;19.35;;;;;;;6.68;64.69;101125.97;4335528;32;33018;-89
2020/12/21 00:11:51;;;;;;;39.92;20.73;;;;;;;6.66;65.38;101124.25;4346123;33;33943;-87
2020/12/21 00:14:19;;;;;;;40.28;21.60;;;;;;;6.62;65.05;101114.63;4321641;33;32583;-87
2020/12/21 00:16:53;;;;;;;41.72;20.62;;;;;;;6.29;66.15;101118.34;4332481;33;34591;-87
2020/12/21 00:19:21;;;;;;;40.45;21.77;;;;;;;6.20;67.11;101121.00;4328993;33;32624;-87
2020/12/21 00:21:51;;;;;;;37.92;21.40;;;;;;;6.34;66.26;101113.94;4343332;32;32157;-87
2020/12/21 00:24:21;;;;;;;37.65;20.20;;;;;;;6.36;66.30;101115.69;4340604;33;33485;-87
2020/12/21 00:26:52;;;;;;;36.58;19.33;;;;;;;6.72;65.13;101115.44;4346909;33;33051;-87
2020/12/21 00:29:20;;;;;;;36.10;18.80;;;;;;;6.71;64.93;101111.09;4349458;32;33760;-87
2020/12/21 00:31:48;;;;;;;41.47;20.12;;;;;;;6.89;64.14;101118.84;4333577;33;32534;-87
2020/12/21 00:34:16;;;;;;;34.92;19.35;;;;;;;6.75;64.91;101121.56;4346390;33;32298;-87
2020/12/21 00:36:50;;;;;;;35.88;18.35;;;;;;;6.84;64.30;101118.00;4339834;33;33811;-87
2020/12/21 00:39:18;;;;;;;37.47;19.00;;;;;;;6.79;64.96;101115.41;4346857;32;32909;-87
2020/12/21 00:41:45;;;;;;;34.55;19.33;;;;;;;6.43;65.81;101115.63;4346526;33;32821;-87
2020/12/21 00:44:14;;;;;;;36.40;17.92;;;;;;;6.46;65.53;101123.47;4328529;33;32560;-86
2020/12/21 00:46:42;;;;;;;35.92;19.83;;;;;;;6.50;65.67;101127.81;4351161;32;34498;-88
2020/12/21 00:49:10;;;;;;;35.28;18.70;;;;;;;6.35;66.34;101123.53;4354890;32;33342;-88
2020/12/21 00:51:37;;;;;;;38.20;19.77;;;;;;;6.25;66.52;101133.19;4358122;32;33481;-87
2020/12/21 00:54:05;;;;;;;35.38;18.12;;;;;;;6.08;67.41;101135.06;4344776;32;32725;-88
2020/12/21 00:56:34;;;;;;;38.30;20.00;;;;;;;6.58;65.58;101131.28;4346728;33;33582;-88
2020/12/21 00:59:01;;;;;;;38.25;19.85;;;;;;;6.87;64.56;101129.31;4359050;32;33963;-88
2020/12/21 01:01:30;;;;;;;44.22;22.45;;;;;;;6.72;64.96;101129.44;4347396;32;33878;-88
2020/12/21 01:04:01;;;;;;;35.88;19.27;;;;;;;6.73;64.90;101131.19;4323370;33;32279;-88
2020/12/21 01:06:30;;;;;;;42.08;20.67;;;;;;;6.72;65.11;101132.06;4335229;32;32584;-88
2020/12/21 01:08:58;;;;;;;42.75;20.42;;;;;;;6.61;65.60;101129.53;4335043;32;34317;-87
2020/12/21 01:11:29;;;;;;;39.35;19.92;;;;;;;6.73;65.04;101132.94;4334879;33;33089;-88
2020/12/21 01:13:57;;;;;;;39.53;20.45;;;;;;;6.39;66.46;101139.25;4335199;33;32324;-89
2020/12/21 01:16:25;;;;;;;43.42;20.85;;;;;;;6.57;65.73;101130.41;4359703;32;32600;-89
2020/12/21 01:18:52;;;;;;;40.00;20.83;;;;;;;6.29;66.43;101139.31;4359677;32;33004;-89
2020/12/21 01:21:25;;;;;;;35.45;19.65;;;;;;;6.65;65.61;101138.25;4359430;32;33552;-89
2020/12/21 01:23:57;;;;;;;38.25;19.75;;;;;;;5.80;68.61;101142.97;4346989;33;32614;-89
2020/12/21 01:26:26;;;;;;;;;;;;;;;6.34;66.48;101134.91;4335474;33;34424;-89
2020/12/21 01:28:54;;;;;;;40.30;21.48;;;;;;;6.64;65.74;101136.47;4347588;33;33288;-90
2020/12/21 01:31:23;;;;;;;40.65;19.83;;;;;;;6.41;66.95;101140.12;4335030;32;32706;-89
2020/12/21 01:34:01;;;;;;;40.63;21.25;;;;;;;6.65;66.06;101135.63;4325206;33;32716;-89
2020/12/21 01:36:28;;;;;;;49.28;22.37;;;;;;;6.58;66.00;101131.28;4334996;33;33346;-90
2020/12/21 01:38:56;;;;;;;42.17;22.02;;;;;;;6.63;65.80;101129.50;4322884;33;32585;-90
2020/12/21 01:41:23;;;;;;;44.55;23.90;;;;;;;6.46;66.49;101127.00;4335173;32;32690;-88
2020/12/21 01:43:57;;;;;;;42.85;22.27;;;;;;;6.34;67.02;101138.41;4322575;33;32715;-87
2020/12/21 01:46:25;;;;;;;47.55;23.60;;;;;;;6.80;65.34;101132.91;4343176;33;32422;-87
2020/12/21 01:48:52;;;;;;;43.35;21.85;;;;;;;6.35;66.65;101128.78;4359044;32;33239;-88
2020/12/21 01:51:20;;;;;;;43.03;21.83;;;;;;;6.62;65.84;101127.75;4346701;33;33487;-88
2020/12/21 01:53:48;;;;;;;38.65;19.17;;;;;;;6.33;66.96;101135.81;4346791;32;32439;-89
2020/12/21 01:56:16;;;;;;;41.20;21.50;;;;;;;6.63;66.03;101126.88;4358961;32;33062;-88
2020/12/21 01:58:44;;;;;;;44.10;21.52;;;;;;;6.73;65.64;101125.94;4346608;33;34900;-86
2020/12/21 02:01:14;;;;;;;42.22;20.65;;;;;;;6.21;67.85;101120.97;4333471;32;31998;-86
2020/12/21 02:03:42;;;;;;;40.78;20.33;;;;;;;6.86;65.58;101117.09;4327191;33;32722;-86
2020/12/21 02:06:10;;;;;;;41.88;21.20;;;;;;;6.86;65.59;101117.09;4339532;33;33483;-86
2020/12/21 02:08:40;;;;;;;44.13;21.77;;;;;;;6.95;65.35;101120.53;4337371;33;33999;-86
2020/12/21 02:11:08;;;;;;;43.75;20.50;;;;;;;6.07;68.35;101126.28;4357150;32;33529;-86
2020/12/21 02:13:35;;;;;;;40.83;21.48;;;;;;;6.42;67.81;101120.00;4346549;33;32528;-85
2020/12/21 02:16:02;;;;;;;36.53;19.75;;;;;;;6.39;67.86;101120.88;4347971;32;33474;-86
2020/12/21 02:18:31;;;;;;;38.08;20.27;;;;;;;6.58;67.39;101110.28;4322224;33;36205;-86
2020/12/21 02:20:58;;;;;;;39.60;20.42;;;;;;;6.77;66.53;101117.16;4346033;33;33768;-86
2020/12/21 02:23:25;;;;;;;40.65;20.58;;;;;;;6.98;65.69;101110.88;4359367;32;32584;-86
2020/12/21 02:25:54;;;;;;;40.45;21.40;;;;;;;6.76;66.52;101112.78;4339540;32;33146;-86
2020/12/21 02:28:21;;;;;;;42.88;21.37;;;;;;;6.86;66.34;101117.09;4353241;32;33755;-86
2020/12/21 02:30:48;;;;;;;39.45;20.75;;;;;;;6.87;66.53;101112.72;4345643;33;34578;-86
2020/12/21 02:33:16;;;;;;;39.33;20.00;;;;;;;6.78;66.32;101113.62;4326626;33;32130;-86
2020/12/21 02:35:43;;;;;;;39.70;19.75;;;;;;;6.36;67.77;101120.94;4342977;33;33897;-87
2020/12/21 02:38:11;;;;;;;44.15;21.60;;;;;;;6.55;67.79;101119.06;4340374;33;33864;-87
2020/12/21 02:40:41;;;;;;;43.70;21.08;;;;;;;6.66;66.90;101119.00;4327959;33;32591;-87
2020/12/21 02:43:22;;;;;;;41.65;21.62;;;;;;;6.91;65.91;101120.53;4325391;33;32007;-87
2020/12/21 02:45:50;;;;;;;46.35;22.77;;;;;;;6.67;67.02;101115.47;4345970;33;33923;-86
2020/12/21 02:48:17;;;;;;;40.33;21.23;;;;;;;6.79;66.50;101112.78;4349701;32;32885;-86
2020/12/21 02:50:46;;;;;;;38.38;21.12;;;;;;;6.83;66.44;101117.09;4354881;32;32315;-86
2020/12/21 02:53:17;;;;;;;49.92;22.83;;;;;;;6.91;65.92;101115.31;4347645;32;32093;-86
2020/12/21 02:55:45;;;;;;;39.80;21.30;;;;;;;7.01;66.15;101118.72;4343655;33;31710;-86
2020/12/21 02:58:24;;;;;;;40.83;21.48;;;;;;;6.90;66.70;101112.69;4325913;33;34330;-87
2020/12/21 03:00:51;;;;;;;40.22;20.77;;;;;;;7.18;65.37;101108.09;4339825;32;32729;-86
2020/12/21 03:03:18;;;;;;;43.00;22.73;;;;;;;7.22;65.07;101098.44;4321493;33;32100;-87
2020/12/21 03:05:46;;;;;;;42.10;23.02;;;;;;;7.00;65.65;101106.47;4334721;33;33094;-87
2020/12/21 03:08:16;;;;;;;51.17;24.30;;;;;;;6.96;65.97;101099.50;4340894;32;32423;-86
2020/12/21 03:10:44;;;;;;;46.88;24.52;;;;;;;6.54;67.69;101105.94;4336370;33;32694;-86
2020/12/21 03:13:11;;;;;;;43.45;21.80;;;;;;;6.60;67.74;101103.28;4347212;33;33194;-87
2020/12/21 03:15:39;;;;;;;45.88;23.23;;;;;;;6.74;67.40;101105.78;4336540;32;34217;-87
2020/12/21 03:18:06;;;;;;;48.95;24.80;;;;;;;6.96;66.38;101103.91;4341220;33;33438;-87
2020/12/21 03:20:43;;;;;;;47.80;24.15;;;;;;;7.18;65.47;101101.06;4340257;33;33552;-86
2020/12/21 03:23:11;;;;;;;47.55;23.30;;;;;;;7.23;65.33;101095.78;4352594;32;34160;-85
2020/12/21 03:25:42;;;;;;;48.85;24.00;;;;;;;7.41;64.56;101095.59;4336352;33;33624;-85
2020/12/21 03:28:09;;;;;;;50.00;24.15;;;;;;;7.32;64.73;101100.94;4359244;32;33182;-85
2020/12/21 03:30:36;;;;;;;49.90;23.55;;;;;;;7.31;64.70;101093.06;4357197;32;34371;-85
2020/12/21 03:33:04;;;;;;;49.80;24.75;;;;;;;7.15;65.08;101092.34;4345208;33;33122;-85
2020/12/21 03:35:32;;;;;;;49.13;21.98;;;;;;;7.06;65.79;101092.41;4360136;32;33048;-85
2020/12/21 03:37:59;;;;;;;55.67;24.77;;;;;;;6.88;65.98;101094.34;4335747;33;33801;-85
2020/12/21 03:40:26;;;;;;;51.65;25.45;;;;;;;6.73;66.72;101093.56;4343769;33;33573;-85
2020/12/21 03:42:53;;;;;;;50.22;24.42;;;;;;;6.93;65.96;101097.78;4344470;33;33026;-87
2020/12/21 03:45:21;;;;;;;49.17;25.30;;;;;;;6.96;66.02;101096.00;4323100;33;33909;-88
2020/12/21 03:47:48;;;;;;;47.83;23.87;;;;;;;6.75;66.79;101100.56;4333809;33;34222;-87
2020/12/21 03:50:18;;;;;;;46.65;24.40;;;;;;;6.83;66.62;101101.34;4347115;33;32435;-87
2020/12/21 03:52:46;;;;;;;47.35;23.50;;;;;;;6.64;67.16;101110.25;4321303;33;32772;-88
2020/12/21 03:55:13;;;;;;;47.65;23.87;;;;;;;7.02;65.80;101098.59;4320908;33;33629;-87
2020/12/21 03:57:41;;;;;;;47.28;24.52;;;;;;;6.52;67.69;101097.22;4332396;32;32880;-86
2020/12/21 04:00:09;;;;;;;46.03;22.70;;;;;;;6.96;66.38;101088.13;4327631;33;33978;-86
2020/12/21 04:02:39;;;;;;;47.25;23.65;;;;;;;6.58;67.11;101089.28;4347813;33;33494;-86
2020/12/21 04:05:07;;;;;;;48.45;24.92;;;;;;;6.41;67.96;101087.66;4347628;33;34608;-86
2020/12/21 04:07:38;;;;;;;49.30;25.45;;;;;;;6.93;66.17;101084.66;4347901;33;33603;-88
2020/12/21 04:10:06;;;;;;;53.28;24.40;;;;;;;6.75;67.10;101090.06;4348190;32;34077;-88
2020/12/21 04:12:35;;;;;;;46.97;24.25;;;;;;;7.24;64.94;101081.75;4348004;32;32137;-88
2020/12/21 04:15:05;;;;;;;47.10;24.23;;;;;;;7.04;65.24;101084.56;4348016;32;33660;-89
2020/12/21 04:17:33;;;;;;;53.83;24.75;;;;;;;6.93;66.12;101075.88;4335511;33;32779;-89
2020/12/21 04:20:01;;;;;;;54.72;26.20;;;;;;;6.98;65.48;101083.72;4347963;32;32586;-89
2020/12/21 04:22:29;;;;;;;49.88;24.63;;;;;;;6.98;65.84;101084.63;4347899;32;32273;-89
2020/12/21 04:24:56;;;;;;;48.50;24.37;;;;;;;6.77;66.51;101087.41;4323452;33;33019;-89
2020/12/21 04:27:24;;;;;;;54.38;24.83;;;;;;;6.65;66.79;101091.00;4335502;32;32316;-89
2020/12/21 04:29:51;;;;;;;52.35;25.83;;;;;;;6.54;67.23;101092.81;4335526;32;34042;-89
2020/12/21 04:32:18;;;;;;;52.45;26.30;;;;;;;6.93;66.19;101092.53;4333870;32;32306;-90
2020/12/21 04:34:46;;;;;;;46.70;24.00;;;;;;;6.86;66.41;101101.34;4335074;32;33046;-89
2020/12/21 04:37:13;;;;;;;44.67;23.27;;;;;;;7.02;65.81;101090.69;4335807;32;32926;-89
2020/12/21 04:39:41;;;;;;;53.05;23.58;;;;;;;6.74;66.21;101097.91;4323636;33;32463;-89
2020/12/21 04:42:09;;;;;;;50.28;23.95;;;;;;;7.00;65.59;101087.22;4323389;33;33780;-89
2020/12/21 04:44:36;;;;;;;53.25;25.45;;;;;;;7.17;64.81;101090.59;4335478;33;32949;-89
2020/12/21 04:47:05;;;;;;;52.25;24.98;;;;;;;6.89;65.75;101098.69;4348095;33;33664;-89
2020/12/21 04:49:34;;;;;;;53.70;25.98;;;;;;;7.02;65.81;101088.94;4335495;32;32732;-88
2020/12/21 04:52:05;;;;;;;55.97;26.95;;;;;;;6.62;66.96;101089.25;4335467;33;33338;-87
2020/12/21 04:54:33;;;;;;;52.05;25.10;;;;;;;6.65;66.82;101088.37;4347226;33;33564;-86
2020/12/21 04:57:01;;;;;;;47.75;25.58;;;;;;;6.86;66.06;101090.84;4335149;33;34475;-86
2020/12/21 04:59:29;;;;;;;53.85;26.30;;;;;;;6.91;66.15;101091.66;4337861;33;32945;-87
2020/12/21 05:01:57;;;;;;;50.08;24.27;;;;;;;7.10;65.71;101088.88;4336102;33;33382;-86
2020/12/21 05:04:27;;;;;;;50.12;26.12;;;;;;;6.93;66.15;101097.78;4336911;33;34269;-87
2020/12/21 05:06:56;;;;;;;51.53;26.35;;;;;;;6.60;67.43;101095.44;4340820;32;34202;-87
2020/12/21 05:09:25;;;;;;;49.88;25.75;;;;;;;6.50;68.28;101101.59;4347165;32;33426;-87
2020/12/21 05:12:07;;;;;;;55.53;25.30;;;;;;;6.87;67.10;101103.06;4347507;32;31826;-87
2020/12/21 05:14:35;;;;;;;46.35;23.65;;;;;;;6.94;67.03;101111.78;4335525;32;32304;-86
2020/12/21 05:17:13;;;;;;;53.47;27.13;;;;;;;7.25;65.43;101099.25;4347199;32;33717;-86
2020/12/21 05:19:43;;;;;;;52.78;27.42;;;;;;;7.20;65.96;101095.78;4347170;33;33252;-86
2020/12/21 05:22:17;;;;;;;56.33;26.52;;;;;;;7.17;66.15;101099.34;4359313;32;33247;-86
2020/12/21 05:24:44;;;;;;;51.42;25.98;;;;;;;7.16;66.20;101101.97;4335027;33;34348;-86
2020/12/21 05:27:16;;;;;;;52.22;27.98;;;;;;;7.27;65.58;101097.50;4334984;33;33718;-86
2020/12/21 05:29:52;;;;;;;55.33;28.00;;;;;;;6.86;66.41;101101.34;4336101;33;33531;-86
2020/12/21 05:32:20;;;;;;;53.97;25.67;;;;;;;7.00;66.15;101113.50;4334582;33;34201;-88
2020/12/21 05:34:50;;;;;;;54.85;24.85;;;;;;;7.00;65.95;101108.25;4343104;32;34095;-90
2020/12/21 05:37:39;;;;;;;50.80;26.02;;;;;;;6.82;66.59;101111.87;4328407;33;34160;-89
2020/12/21 05:40:08;;;;;;;54.63;25.70;;;;;;;7.11;65.75;101101.13;4326446;33;32550;-88
2020/12/21 05:42:36;;;;;;;50.60;25.92;;;;;;;7.08;65.77;101106.44;4325354;33;32461;-90
2020/12/21 05:45:07;;;;;;;54.38;28.50;;;;;;;7.07;65.74;101115.16;4318085;33;33500;-89
2020/12/21 05:47:35;;;;;;;55.20;25.58;;;;;;;7.15;65.68;101113.34;4327233;33;32238;-90
2020/12/21 05:50:05;;;;;;;51.22;25.70;;;;;;;7.08;65.88;101106.44;4326524;33;32659;-89
2020/12/21 05:52:34;;;;;;;50.70;26.80;;;;;;;6.96;66.26;101103.91;4315104;33;32381;-89
2020/12/21 05:55:07;;;;;;;53.97;26.83;;;;;;;6.99;65.96;101112.63;4319087;33;32803;-90
2020/12/21 05:57:36;;;;;;;52.22;25.08;;;;;;;6.80;66.96;101117.16;4341895;33;33593;-90
2020/12/21 06:00:06;;;;;;;50.78;25.73;;;;;;;6.77;66.97;101111.03;4355291;32;32220;-90
2020/12/21 06:02:35;;;;;;;54.35;24.63;;;;;;;7.01;65.94;101116.09;4333363;33;33025;-90
2020/12/21 06:05:14;;;;;;;51.10;26.70;;;;;;;6.90;66.40;101113.56;4344647;32;32518;-90
2020/12/21 06:07:50;;;;;;;51.05;25.17;;;;;;;7.14;65.27;101104.59;4322714;32;32833;-90
2020/12/21 06:10:17;;;;;;;50.92;25.88;;;;;;;6.89;66.37;101110.97;4333317;32;33292;-90
2020/12/21 06:12:47;;;;;;;51.70;24.50;;;;;;;6.84;66.52;101108.37;4357504;32;33298;-90
2020/12/21 06:15:19;;;;;;;49.70;24.45;;;;;;;6.25;68.44;101117.47;4333969;32;33530;-89
2020/12/21 06:17:51;;;;;;;54.65;26.58;;;;;;;6.76;66.55;101114.56;4333044;33;32643;-90
2020/12/21 06:20:21;;;;;;;52.13;23.83;;;;;;;6.56;67.43;101127.81;4354791;32;32668;-89
2020/12/21 06:22:49;;;;;;;54.92;25.92;;;;;;;6.60;67.64;101119.03;4342064;32;33532;-90
2020/12/21 06:25:22;;;;;;;57.62;27.30;;;;;;;6.73;66.94;101125.94;4329665;32;33108;-88
2020/12/21 06:27:50;;;;;;;;;;;;;;;6.74;67.06;101122.44;4343872;32;32969;-88
2020/12/21 06:30:28;;;;;;;55.35;26.62;;;;;;;6.71;66.99;101130.34;4342645;32;33401;-88
2020/12/21 06:33:01;;;;;;;51.28;24.58;;;;;;;6.56;67.40;101122.56;4316763;32;33685;-87
2020/12/21 06:35:29;;;;;;;50.05;25.58;;;;;;;6.99;66.00;101115.25;4342741;32;34363;-88
2020/12/21 06:38:02;;;;;;;50.72;25.10;;;;;;;6.97;66.06;101118.75;4355306;32;33809;-88
2020/12/21 06:40:34;;;;;;;51.22;24.55;;;;;;;6.69;66.88;101126.81;4320050;33;33040;-89
2020/12/21 06:43:12;;;;;;;46.58;24.80;;;;;;;6.28;68.32;101133.19;4354773;32;32893;-88
2020/12/21 06:45:41;;;;;;;52.60;24.65;;;;;;;6.41;68.20;101136.66;4330541;33;32451;-88
2020/12/21 06:48:08;;;;;;;45.20;23.42;;;;;;;6.87;66.31;101134.56;4332260;33;32350;-89
2020/12/21 06:50:36;;;;;;;50.85;25.70;;;;;;;6.68;67.19;101144.34;4333229;33;34246;-89
2020/12/21 06:53:07;;;;;;;53.78;25.45;;;;;;;6.69;67.24;101145.19;4333788;33;34146;-89
2020/12/21 06:55:37;;;;;;;45.28;21.92;;;;;;;6.91;65.84;101145.94;4337664;33;33343;-90
2020/12/21 06:58:16;;;;;;;52.15;23.83;;;;;;;7.06;65.10;101145.81;4315231;33;33336;-87
2020/12/21 07:00:44;;;;;;;45.38;23.50;;;;;;;6.79;66.35;101149.53;4287997;33;33627;-87
2020/12/21 07:03:11;;;;;;;52.47;22.98;;;;;;;6.96;65.84;101153.78;4311942;33;32413;-88
2020/12/21 07:05:39;;;;;;;44.50;22.83;;;;;;;6.91;65.33;101154.69;4324235;33;32863;-87
2020/12/21 07:08:08;;;;;;;43.65;21.02;;;;;;;6.71;65.92;101148.69;4318822;33;33716;-88
2020/12/21 07:10:39;;;;;;;;;;;;;;;6.79;65.91;101153.88;4296463;33;33181;-88
2020/12/21 07:13:06;;;;;;;45.15;22.70;;;;;;;6.79;65.94;101160.03;4342658;32;33481;-88
2020/12/21 07:15:34;;;;;;;46.83;23.05;;;;;;;7.10;64.76;101162.44;4317980;33;33742;-88
2020/12/21 07:18:01;;;;;;;50.72;22.75;;;;;;;7.15;64.53;101164.12;4317675;33;32919;-89
2020/12/21 07:20:29;;;;;;;42.58;21.45;;;;;;;6.80;66.13;101164.41;4329132;33;32763;-88
2020/12/21 07:22:57;;;;;;;45.28;23.05;;;;;;;7.19;64.68;101167.62;4309416;33;33075;-88
2020/12/21 07:25:24;;;;;;;49.25;23.90;;;;;;;6.83;65.91;101168.75;4312292;33;33234;-88
2020/12/21 07:27:53;;;;;;;42.78;21.48;;;;;;;6.89;66.03;101169.59;4303301;33;35022;-87
2020/12/21 07:30:25;;;;;;;45.25;21.87;;;;;;;7.29;64.23;101168.41;4315149;33;32723;-88
2020/12/21 07:32:53;;;;;;;44.03;22.17;;;;;;;7.16;64.75;101170.25;4302806;33;33352;-88
2020/12/21 07:35:20;;;;;;;58.70;25.12;;;;;;;7.17;64.60;101165.00;4311675;33;32641;-88
2020/12/21 07:38:12;;;;;;;45.70;23.67;;;;;;;7.05;65.08;101161.59;4306171;33;32986;-88
2020/12/21 07:40:40;;;;;;;43.83;21.85;;;;;;;6.82;65.80;101162.63;4329501;33;34339;-88
2020/12/21 07:43:13;;;;;;;47.67;22.85;;;;;;;6.83;66.18;101174.84;4326116;33;31731;-88
2020/12/21 07:45:40;;;;;;;;;;;;;;;6.99;65.47;101167.78;4316742;33;33739;-88
2020/12/21 07:48:09;;;;;;;43.72;21.90;;;;;;;7.29;64.48;101173.66;4331645;33;33129;-88
2020/12/21 07:50:36;;;;;;;46.37;21.58;;;;;;;7.18;64.37;101171.12;4315862;33;33171;-88
2020/12/21 07:53:03;;;;;;;45.92;21.35;;;;;;;7.17;64.57;101174.66;4340497;32;32720;-88
2020/12/21 07:55:31;;;;;;;43.47;21.23;;;;;;;6.96;65.24;101174.78;4305239;33;32929;-88
2020/12/21 07:57:59;;;;;;;43.50;21.58;;;;;;;7.16;64.94;101178.12;4334779;33;32529;-88
2020/12/21 08:00:27;;;;;;;46.10;22.95;;;;;;;7.34;64.44;101178.00;4314326;33;33138;-89
2020/12/21 08:02:58;;;;;;;43.17;22.02;;;;;;;7.59;63.65;101159.37;4329530;33;33160;-88
2020/12/21 08:05:25;;;;;;;39.85;22.37;;;;;;;7.40;63.71;101175.31;4331296;33;33320;-88
2020/12/21 08:07:53;;;;;;;42.62;22.87;;;;;;;7.07;64.79;101179.06;4305396;33;32629;-88
2020/12/21 08:10:20;;;;;;;40.65;21.15;;;;;;;7.31;64.06;101175.41;4318293;33;32998;-88
2020/12/21 08:12:48;;;;;;;40.10;20.20;;;;;;;6.97;64.96;101180.03;4319158;33;32063;-88
2020/12/21 08:15:19;;;;;;;36.78;19.42;;;;;;;7.14;64.18;101179.91;4327333;33;33758;-88
2020/12/21 08:17:47;;;;;;;41.78;19.92;;;;;;;6.74;64.95;101185.44;4308653;33;33254;-88
2020/12/21 08:20:15;;;;;;;31.87;16.52;;;;;;;6.74;64.65;101177.56;4327958;33;32885;-88
2020/12/21 08:22:42;;;;;;;36.17;17.75;;;;;;;6.73;64.87;101188.06;4303003;33;32663;-88
2020/12/21 08:25:11;;;;;;;41.28;19.77;;;;;;;6.95;64.18;101181.81;4304081;33;32336;-88
2020/12/21 08:27:58;;;;;;;40.53;19.25;;;;;;;6.77;65.26;101187.16;4328328;33;32947;-88
2020/12/21 08:30:26;;;;;;;39.22;18.60;;;;;;;6.82;64.51;101172.25;4328227;33;32952;-88
2020/12/21 08:32:57;;;;;;;37.25;19.90;;;;;;;6.55;65.53;101183.78;4320494;33;33221;-88
2020/12/21 08:35:26;;;;;;;;;;;;;;;6.58;64.77;101181.16;4304868;33;32678;-88
2020/12/21 08:38:04;;;;;;;33.53;16.55;;;;;;;6.64;65.66;101183.72;4294214;33;30443;-88
2020/12/21 08:40:32;;;;;;;31.23;16.90;;;;;;;6.78;64.24;101181.91;4319136;33;33293;-89
2020/12/21 08:43:00;;;;;;;29.45;15.57;;;;;;;6.51;64.70;101176.81;4304198;33;33301;-88
2020/12/21 08:45:27;;;;;;;32.58;17.25;;;;;;;6.41;64.95;101186.50;4294715;33;33041;-88
2020/12/21 08:47:55;;;;;;;35.53;17.75;;;;;;;6.42;64.73;101180.34;4302717;33;33816;-88
2020/12/21 08:50:22;;;;;;;34.00;16.65;;;;;;;6.47;65.16;101175.09;4305676;33;32930;-88
2020/12/21 08:52:49;;;;;;;31.00;16.05;;;;;;;6.12;65.60;101178.72;4330560;33;33322;-88
2020/12/21 08:55:17;;;;;;;25.42;14.07;;;;;;;6.21;65.62;101180.44;4310976;33;32205;-88
2020/12/21 08:57:45;;;;;;;32.30;15.57;;;;;;;6.56;64.41;101188.16;4306113;33;33391;-88
2020/12/21 09:00:12;;;;;;;28.20;14.30;;;;;;;6.44;64.01;101185.59;4306635;33;31849;-88
2020/12/21 09:02:40;;;;;;;28.23;15.05;;;;;;;6.49;63.67;101182.06;4328521;33;34152;-88
2020/12/21 09:05:07;;;;;;;161.65;81.53;;;;;;;6.87;62.74;101179.22;4307053;33;33808;-88
2020/12/21 09:07:36;;;;;;;51.08;27.50;;;;;;;6.68;63.63;101180.22;4322718;33;34094;-87
2020/12/21 09:10:04;;;;;;;49.90;30.98;;;;;;;6.30;64.51;101177.78;4311328;33;32947;-88
2020/12/21 09:12:33;;;;;;;37.15;17.83;;;;;;;6.39;64.87;101173.38;4323691;33;32583;-88
2020/12/21 09:15:00;;;;;;;126.32;111.10;;;;;;;6.28;65.23;101169.94;4297237;33;32946;-88
2020/12/21 09:17:28;;;;;;;35.22;17.65;;;;;;;6.38;65.42;101165.50;4331292;33;33089;-88
2020/12/21 09:19:55;;;;;;;32.00;16.55;;;;;;;6.64;64.52;101166.22;4301639;33;32626;-87
2020/12/21 09:22:26;;;;;;;34.78;17.75;;;;;;;6.44;65.04;101160.22;4317533;33;32065;-88
2020/12/21 09:24:54;;;;;;;34.03;18.25;;;;;;;6.19;66.12;101159.47;4303335;33;32932;-88
2020/12/21 09:27:21;;;;;;;32.55;15.65;;;;;;;6.54;64.88;101151.41;4325002;33;32726;-87
2020/12/21 09:29:48;;;;;;;28.55;15.82;;;;;;;5.73;67.27;101164.81;4320562;33;32748;-92
2020/12/21 09:32:39;;;;;;;29.55;14.43;;;;;;;6.27;65.53;101162.06;4316021;33;31537;-93
2020/12/21 09:35:21;;;;;;;27.85;15.07;;;;;;;6.77;64.05;101153.03;4360052;32;32981;-93
2020/12/21 09:37:49;;;;;;;27.25;13.95;;;;;;;6.48;64.83;101155.84;4374270;32;32384;-92
2020/12/21 09:40:28;;;;;;;30.62;15.15;;;;;;;6.59;64.02;101159.25;4322925;33;33001;-93
2020/12/21 09:43:40;;;;;;;31.92;16.92;;;;;;;6.34;65.75;101155.91;4323957;33;34317;-90
2020/12/21 09:46:35;;;;;;;33.83;16.40;;;;;;;5.73;67.25;101159.56;4335001;32;33128;-91
2020/12/21 09:49:26;;;;;;;33.80;16.37;;;;;;;6.36;64.98;101157.66;4297584;33;33018;-92
2020/12/21 09:52:07;;;;;;;32.72;16.00;;;;;;;6.49;64.83;101157.56;4329887;33;33308;-92
2020/12/21 09:55:02;;;;;;;32.67;17.58;;;;;;;6.51;64.91;101150.59;4337247;32;33073;-91
2020/12/21 09:57:45;;;;;;;40.72;20.70;;;;;;;6.68;64.34;101146.09;4326878;33;33196;-91
2020/12/21 10:00:36;;;;;;;39.30;18.95;;;;;;;6.27;65.90;101141.09;4307907;33;33592;-91
2020/12/21 10:03:16;;;;;;;34.88;17.80;;;;;;;6.43;65.07;101142.75;4297772;33;33572;-92
2020/12/21 10:05:58;;;;;;;36.67;16.87;;;;;;;6.28;65.80;101133.19;4326728;33;32644;-92
2020/12/21 10:08:42;;;;;;;30.95;16.52;;;;;;;6.59;64.80;101127.78;4329393;33;32409;-91
2020/12/21 10:11:24;;;;;;;42.90;18.27;;;;;;;6.86;63.63;101127.59;4336261;33;33480;-91
2020/12/21 10:13:52;;;;;;;35.25;16.33;;;;;;;6.17;66.18;101134.97;4315004;33;33565;-91
2020/12/21 10:16:34;;;;;;;33.17;17.33;;;;;;;6.43;64.90;101129.63;4340804;33;32150;-89
2020/12/21 10:19:02;;;;;;;33.33;17.23;;;;;;;6.21;65.00;101130.59;4341220;32;33089;-90
2020/12/21 10:21:30;;;;;;;31.70;16.95;;;;;;;6.65;63.88;101125.13;4330529;32;32246;-90
2020/12/21 10:23:58;;;;;;;31.77;16.37;;;;;;;6.34;65.19;101125.28;4353877;32;33432;-89
2020/12/21 10:26:28;;;;;;;35.92;18.37;;;;;;;6.46;64.79;101111.25;4342866;32;32350;-89
2020/12/21 10:28:57;;;;;;;30.70;15.70;;;;;;;6.08;65.24;101119.31;4333571;32;33138;-89
2020/12/21 10:31:29;;;;;;;42.38;19.58;;;;;;;6.03;65.43;101111.47;4363908;32;33026;-89
2020/12/21 10:33:56;;;;;;;77.82;33.38;;;;;;;6.24;65.53;101105.25;4342857;32;33759;-89
2020/12/21 10:36:24;;;;;;;38.55;19.17;;;;;;;6.37;65.40;101098.19;4330951;32;32880;-90
2020/12/21 10:39:03;;;;;;;38.50;21.83;;;;;;;6.68;63.93;101093.59;4356096;32;30960;-89
2020/12/21 10:41:34;;;;;;;34.50;17.83;;;;;;;6.47;64.77;101093.75;4354429;32;33290;-88
2020/12/21 10:44:02;;;;;;;33.08;17.45;;;;;;;6.50;64.83;101089.34;4353761;32;33188;-90
2020/12/21 10:46:30;;;;;;;26.65;14.90;;;;;;;6.88;64.20;101099.59;4337851;32;33871;-89
2020/12/21 10:48:57;;;;;;;26.70;14.07;;;;;;;7.00;62.14;101087.22;4341354;32;32984;-90
2020/12/21 10:51:27;;;;;;;30.62;14.95;;;;;;;6.81;63.35;101089.12;4332811;32;32432;-90
2020/12/21 10:53:55;;;;;;;26.15;14.00;;;;;;;6.96;62.96;101088.13;4344938;32;32826;-90
2020/12/21 10:56:24;;;;;;;25.48;13.60;;;;;;;6.99;63.12;101080.25;4355597;32;32443;-89
2020/12/21 10:58:54;;;;;;;27.33;13.93;;;;;;;6.45;63.31;101096.38;4337166;32;33228;-89
2020/12/21 11:01:21;;;;;;;28.02;15.30;;;;;;;6.26;64.17;101102.59;4332850;33;32593;-89
2020/12/21 11:03:49;;;;;;;28.50;14.07;;;;;;;6.33;64.57;101089.44;4364021;32;33523;-89
2020/12/21 11:06:22;;;;;;;23.23;13.20;;;;;;;6.56;64.08;101091.06;4356435;32;32797;-89
2020/12/21 11:08:52;;;;;;;25.00;14.63;;;;;;;6.63;63.46;101091.00;4352098;32;32740;-89
2020/12/21 11:11:27;;;;;;;25.90;14.50;;;;;;;6.52;63.89;101089.34;4329910;32;32695;-89
2020/12/21 11:13:55;;;;;;;27.52;13.70;;;;;;;6.21;64.89;101084.25;4345486;32;32814;-89
2020/12/21 11:16:39;;;;;;;28.20;13.40;;;;;;;6.46;64.79;101081.50;4330675;33;32612;-89
2020/12/21 11:19:07;;;;;;;24.58;13.85;;;;;;;6.91;62.57;101077.66;4331994;32;32802;-89
2020/12/21 11:21:36;;;;;;;30.65;14.68;;;;;;;7.02;62.06;101072.31;4332616;33;33731;-89
2020/12/21 11:24:04;;;;;;;28.62;14.07;;;;;;;6.89;62.92;101063.69;4342290;32;33638;-90
2020/12/21 11:26:31;;;;;;;28.10;14.35;;;;;;;7.54;60.78;101058.66;4354238;32;33269;-89
2020/12/21 11:28:59;;;;;;;25.67;16.55;;;;;;;7.55;60.33;101061.28;4339730;32;32476;-89
2020/12/21 11:31:27;;;;;;;26.35;13.52;;;;;;;7.06;62.65;101066.16;4338473;32;30968;-90
2020/12/21 11:34:22;;;;;;;30.77;16.08;;;;;;;7.13;62.39;101070.50;4318971;32;32905;-88